sensor_id;sensor_type;location;lat;lon;timestamp;P1;durP1;ratioP1;P2;durP2;ratioP2
76171;SDS011;64929;51.178;4.138;2023-04-24T00:02:14;24.63;;;13.88;;
76171;SDS011;64929;51.178;4.138;2023-04-24T00:04:41;24.42;;;13.77;;
76171;SDS011;64929;51.178;4.138;2023-04-24T00:07:09;19.50;;;11.75;;
76171;SDS011;64929;51.178;4.138;2023-04-24T00:09:36;24.52;;;13.25;;
76171;SDS011;64929;51.178;4.138;2023-04-24T00:12:02;25.25;;;13.38;;
76171;SDS011;64929;51.178;4.138;2023-04-24T00:14:31;22.83;;;11.90;;
76171;SDS011;64929;51.178;4.138;2023-04-24T00:16:56;24.77;;;13.55;;
76171;SDS011;64929;51.178;4.138;2023-04-24T00:19:22;25.50;;;12.77;;
76171;SDS011;64929;51.178;4.138;2023-04-24T00:21:48;18.17;;;12.07;;
76171;SDS011;64929;51.178;4.138;2023-04-24T00:24:17;19.23;;;11.48;;
76171;SDS011;64929;51.178;4.138;2023-04-24T00:26:43;20.85;;;12.25;;
76171;SDS011;64929;51.178;4.138;2023-04-24T00:29:09;19.02;;;12.52;;
76171;SDS011;64929;51.178;4.138;2023-04-24T00:31:34;19.75;;;12.40;;
76171;SDS011;64929;51.178;4.138;2023-04-24T00:34:00;21.52;;;12.38;;
76171;SDS011;64929;51.178;4.138;2023-04-24T00:36:27;19.58;;;13.57;;
76171;SDS011;64929;51.178;4.138;2023-04-24T00:38:53;19.30;;;12.80;;
76171;SDS011;64929;51.178;4.138;2023-04-24T00:41:20;21.25;;;13.55;;
76171;SDS011;64929;51.178;4.138;2023-04-24T00:43:46;23.48;;;14.55;;
76171;SDS011;64929;51.178;4.138;2023-04-24T00:46:13;22.27;;;14.20;;
76171;SDS011;64929;51.178;4.138;2023-04-24T00:48:39;22.67;;;14.70;;
76171;SDS011;64929;51.178;4.138;2023-04-24T00:51:05;21.23;;;14.50;;
76171;SDS011;64929;51.178;4.138;2023-04-24T00:53:31;26.83;;;16.85;;
76171;SDS011;64929;51.178;4.138;2023-04-24T00:55:57;27.27;;;15.90;;
76171;SDS011;64929;51.178;4.138;2023-04-24T00:58:24;27.17;;;17.73;;
76171;SDS011;64929;51.178;4.138;2023-04-24T01:00:51;28.65;;;17.52;;
76171;SDS011;64929;51.178;4.138;2023-04-24T01:03:22;25.15;;;16.20;;
76171;SDS011;64929;51.178;4.138;2023-04-24T01:05:51;28.92;;;16.27;;
76171;SDS011;64929;51.178;4.138;2023-04-24T01:08:19;26.77;;;15.57;;
76171;SDS011;64929;51.178;4.138;2023-04-24T01:10:45;29.92;;;15.88;;
76171;SDS011;64929;51.178;4.138;2023-04-24T01:13:13;19.92;;;13.18;;
76171;SDS011;64929;51.178;4.138;2023-04-24T01:15:39;24.48;;;13.70;;
76171;SDS011;64929;51.178;4.138;2023-04-24T01:18:05;21.48;;;12.85;;
76171;SDS011;64929;51.178;4.138;2023-04-24T01:20:31;19.52;;;12.60;;
76171;SDS011;64929;51.178;4.138;2023-04-24T01:22:57;18.08;;;12.20;;
76171;SDS011;64929;51.178;4.138;2023-04-24T01:25:23;17.73;;;11.57;;
76171;SDS011;64929;51.178;4.138;2023-04-24T01:27:50;18.20;;;11.48;;
76171;SDS011;64929;51.178;4.138;2023-04-24T01:30:17;13.50;;;9.65;;
76171;SDS011;64929;51.178;4.138;2023-04-24T01:32:43;16.60;;;10.18;;
76171;SDS011;64929;51.178;4.138;2023-04-24T01:35:10;14.02;;;9.43;;
76171;SDS011;64929;51.178;4.138;2023-04-24T01:37:36;11.57;;;8.82;;
76171;SDS011;64929;51.178;4.138;2023-04-24T01:40:02;18.45;;;9.25;;
76171;SDS011;64929;51.178;4.138;2023-04-24T01:42:30;13.38;;;9.07;;
76171;SDS011;64929;51.178;4.138;2023-04-24T01:44:56;11.48;;;8.75;;
76171;SDS011;64929;51.178;4.138;2023-04-24T01:47:22;13.00;;;9.38;;
76171;SDS011;64929;51.178;4.138;2023-04-24T01:49:49;14.52;;;9.95;;
76171;SDS011;64929;51.178;4.138;2023-04-24T01:52:15;13.27;;;9.20;;
76171;SDS011;64929;51.178;4.138;2023-04-24T01:54:43;12.98;;;9.65;;
76171;SDS011;64929;51.178;4.138;2023-04-24T01:57:09;14.88;;;10.32;;
76171;SDS011;64929;51.178;4.138;2023-04-24T01:59:35;15.63;;;9.95;;
76171;SDS011;64929;51.178;4.138;2023-04-24T02:02:04;19.33;;;12.00;;
76171;SDS011;64929;51.178;4.138;2023-04-24T02:04:29;18.58;;;11.93;;
76171;SDS011;64929;51.178;4.138;2023-04-24T02:06:55;21.52;;;12.07;;
76171;SDS011;64929;51.178;4.138;2023-04-24T02:09:21;15.55;;;12.07;;
76171;SDS011;64929;51.178;4.138;2023-04-24T02:11:46;17.23;;;12.07;;
76171;SDS011;64929;51.178;4.138;2023-04-24T02:14:12;16.80;;;12.40;;
76171;SDS011;64929;51.178;4.138;2023-04-24T02:16:38;17.92;;;12.63;;
76171;SDS011;64929;51.178;4.138;2023-04-24T02:19:03;21.05;;;13.98;;
76171;SDS011;64929;51.178;4.138;2023-04-24T02:21:29;23.92;;;14.23;;
76171;SDS011;64929;51.178;4.138;2023-04-24T02:23:56;20.55;;;14.05;;
76171;SDS011;64929;51.178;4.138;2023-04-24T02:26:22;20.27;;;14.45;;
76171;SDS011;64929;51.178;4.138;2023-04-24T02:28:48;21.33;;;14.70;;
76171;SDS011;64929;51.178;4.138;2023-04-24T02:31:14;20.67;;;14.18;;
76171;SDS011;64929;51.178;4.138;2023-04-24T02:33:40;21.15;;;13.75;;
76171;SDS011;64929;51.178;4.138;2023-04-24T02:36:05;19.85;;;14.35;;
76171;SDS011;64929;51.178;4.138;2023-04-24T02:38:31;20.70;;;14.13;;
76171;SDS011;64929;51.178;4.138;2023-04-24T02:40:57;21.00;;;15.07;;
76171;SDS011;64929;51.178;4.138;2023-04-24T02:43:23;21.80;;;15.30;;
76171;SDS011;64929;51.178;4.138;2023-04-24T02:45:49;21.17;;;14.90;;
76171;SDS011;64929;51.178;4.138;2023-04-24T02:48:14;22.90;;;15.10;;
76171;SDS011;64929;51.178;4.138;2023-04-24T02:50:40;24.35;;;15.00;;
76171;SDS011;64929;51.178;4.138;2023-04-24T02:53:06;23.85;;;15.05;;
76171;SDS011;64929;51.178;4.138;2023-04-24T02:55:32;22.30;;;14.70;;
76171;SDS011;64929;51.178;4.138;2023-04-24T02:57:57;20.92;;;15.15;;
76171;SDS011;64929;51.178;4.138;2023-04-24T03:00:23;26.70;;;15.52;;
76171;SDS011;64929;51.178;4.138;2023-04-24T03:02:49;20.25;;;14.27;;
76171;SDS011;64929;51.178;4.138;2023-04-24T03:05:15;21.65;;;14.80;;
76171;SDS011;64929;51.178;4.138;2023-04-24T03:07:41;25.00;;;15.75;;
76171;SDS011;64929;51.178;4.138;2023-04-24T03:10:07;24.65;;;15.07;;
76171;SDS011;64929;51.178;4.138;2023-04-24T03:12:33;27.27;;;16.20;;
76171;SDS011;64929;51.178;4.138;2023-04-24T03:14:58;27.95;;;13.95;;
76171;SDS011;64929;51.178;4.138;2023-04-24T03:17:24;22.45;;;11.68;;
76171;SDS011;64929;51.178;4.138;2023-04-24T03:19:50;14.00;;;7.18;;
76171;SDS011;64929;51.178;4.138;2023-04-24T03:22:16;11.02;;;5.25;;
76171;SDS011;64929;51.178;4.138;2023-04-24T03:24:41;9.80;;;4.72;;
76171;SDS011;64929;51.178;4.138;2023-04-24T03:27:07;8.40;;;3.80;;
76171;SDS011;64929;51.178;4.138;2023-04-24T03:29:32;11.90;;;3.83;;
76171;SDS011;64929;51.178;4.138;2023-04-24T03:31:58;10.68;;;3.92;;
76171;SDS011;64929;51.178;4.138;2023-04-24T03:34:24;7.78;;;4.05;;
76171;SDS011;64929;51.178;4.138;2023-04-24T03:36:50;9.98;;;4.03;;
76171;SDS011;64929;51.178;4.138;2023-04-24T03:39:15;7.35;;;3.70;;
76171;SDS011;64929;51.178;4.138;2023-04-24T03:41:41;10.38;;;4.95;;
76171;SDS011;64929;51.178;4.138;2023-04-24T03:44:07;13.25;;;4.88;;
76171;SDS011;64929;51.178;4.138;2023-04-24T03:46:33;7.88;;;4.75;;
76171;SDS011;64929;51.178;4.138;2023-04-24T03:48:58;8.88;;;4.22;;
76171;SDS011;64929;51.178;4.138;2023-04-24T03:51:24;9.63;;;5.38;;
76171;SDS011;64929;51.178;4.138;2023-04-24T03:53:50;7.15;;;4.82;;
76171;SDS011;64929;51.178;4.138;2023-04-24T03:56:16;10.15;;;4.40;;
76171;SDS011;64929;51.178;4.138;2023-04-24T03:58:42;10.05;;;5.57;;
76171;SDS011;64929;51.178;4.138;2023-04-24T04:01:07;9.63;;;5.63;;
76171;SDS011;64929;51.178;4.138;2023-04-24T04:03:33;13.50;;;6.38;;
76171;SDS011;64929;51.178;4.138;2023-04-24T04:05:59;13.50;;;6.88;;
76171;SDS011;64929;51.178;4.138;2023-04-24T04:08:25;9.70;;;5.57;;
76171;SDS011;64929;51.178;4.138;2023-04-24T04:10:50;14.40;;;7.10;;
76171;SDS011;64929;51.178;4.138;2023-04-24T04:13:16;14.02;;;7.93;;
76171;SDS011;64929;51.178;4.138;2023-04-24T04:15:42;17.02;;;8.43;;
76171;SDS011;64929;51.178;4.138;2023-04-24T04:18:07;18.17;;;8.45;;
76171;SDS011;64929;51.178;4.138;2023-04-24T04:20:33;16.65;;;10.40;;
76171;SDS011;64929;51.178;4.138;2023-04-24T04:22:59;22.00;;;9.85;;
76171;SDS011;64929;51.178;4.138;2023-04-24T04:25:25;24.20;;;11.07;;
76171;SDS011;64929;51.178;4.138;2023-04-24T04:27:51;19.30;;;9.90;;
76171;SDS011;64929;51.178;4.138;2023-04-24T04:30:17;21.55;;;10.25;;
76171;SDS011;64929;51.178;4.138;2023-04-24T04:32:46;19.00;;;10.38;;
76171;SDS011;64929;51.178;4.138;2023-04-24T04:35:12;20.52;;;11.35;;
76171;SDS011;64929;51.178;4.138;2023-04-24T04:37:37;21.40;;;11.05;;
76171;SDS011;64929;51.178;4.138;2023-04-24T04:40:03;23.08;;;11.23;;
76171;SDS011;64929;51.178;4.138;2023-04-24T04:42:32;22.95;;;10.80;;
76171;SDS011;64929;51.178;4.138;2023-04-24T04:45:01;21.65;;;10.02;;
76171;SDS011;64929;51.178;4.138;2023-04-24T04:47:27;19.73;;;9.82;;
76171;SDS011;64929;51.178;4.138;2023-04-24T04:49:53;20.48;;;9.70;;
76171;SDS011;64929;51.178;4.138;2023-04-24T04:52:19;17.35;;;9.20;;
76171;SDS011;64929;51.178;4.138;2023-04-24T04:54:49;23.80;;;9.43;;
76171;SDS011;64929;51.178;4.138;2023-04-24T04:57:15;17.20;;;8.35;;
76171;SDS011;64929;51.178;4.138;2023-04-24T04:59:41;17.17;;;8.55;;
76171;SDS011;64929;51.178;4.138;2023-04-24T05:02:07;19.13;;;8.90;;
76171;SDS011;64929;51.178;4.138;2023-04-24T05:04:32;14.90;;;8.93;;
76171;SDS011;64929;51.178;4.138;2023-04-24T05:06:58;17.58;;;8.52;;
76171;SDS011;64929;51.178;4.138;2023-04-24T05:09:24;22.75;;;8.75;;
76171;SDS011;64929;51.178;4.138;2023-04-24T05:11:52;24.75;;;8.25;;
76171;SDS011;64929;51.178;4.138;2023-04-24T05:14:18;18.75;;;8.23;;
76171;SDS011;64929;51.178;4.138;2023-04-24T05:16:44;18.05;;;7.63;;
76171;SDS011;64929;51.178;4.138;2023-04-24T05:19:10;24.20;;;8.15;;
76171;SDS011;64929;51.178;4.138;2023-04-24T05:21:40;19.77;;;7.60;;
76171;SDS011;64929;51.178;4.138;2023-04-24T05:24:06;17.30;;;7.47;;
76171;SDS011;64929;51.178;4.138;2023-04-24T05:26:33;16.58;;;7.18;;
76171;SDS011;64929;51.178;4.138;2023-04-24T05:29:00;14.85;;;7.50;;
76171;SDS011;64929;51.178;4.138;2023-04-24T05:31:26;17.10;;;7.80;;
76171;SDS011;64929;51.178;4.138;2023-04-24T05:33:52;12.82;;;7.30;;
76171;SDS011;64929;51.178;4.138;2023-04-24T05:36:17;17.38;;;8.20;;
76171;SDS011;64929;51.178;4.138;2023-04-24T05:38:43;18.40;;;9.48;;
76171;SDS011;64929;51.178;4.138;2023-04-24T05:41:09;13.90;;;8.38;;
76171;SDS011;64929;51.178;4.138;2023-04-24T05:43:34;21.98;;;8.25;;
76171;SDS011;64929;51.178;4.138;2023-04-24T05:46:00;20.02;;;9.30;;
76171;SDS011;64929;51.178;4.138;2023-04-24T05:48:26;16.90;;;9.18;;
76171;SDS011;64929;51.178;4.138;2023-04-24T05:50:52;18.75;;;8.30;;
76171;SDS011;64929;51.178;4.138;2023-04-24T05:53:18;16.33;;;8.88;;
76171;SDS011;64929;51.178;4.138;2023-04-24T05:55:44;19.05;;;9.75;;
76171;SDS011;64929;51.178;4.138;2023-04-24T05:58:11;18.08;;;9.63;;
76171;SDS011;64929;51.178;4.138;2023-04-24T06:00:37;17.58;;;9.35;;
76171;SDS011;64929;51.178;4.138;2023-04-24T06:03:04;16.35;;;8.75;;
76171;SDS011;64929;51.178;4.138;2023-04-24T06:05:30;13.38;;;9.30;;
76171;SDS011;64929;51.178;4.138;2023-04-24T06:07:56;27.08;;;10.02;;
76171;SDS011;64929;51.178;4.138;2023-04-24T06:10:22;17.05;;;8.32;;
76171;SDS011;64929;51.178;4.138;2023-04-24T06:12:57;13.27;;;8.50;;
76171;SDS011;64929;51.178;4.138;2023-04-24T06:15:26;19.50;;;10.45;;
76171;SDS011;64929;51.178;4.138;2023-04-24T06:17:53;19.85;;;8.90;;
76171;SDS011;64929;51.178;4.138;2023-04-24T06:20:19;16.52;;;9.07;;
76171;SDS011;64929;51.178;4.138;2023-04-24T06:22:44;17.73;;;8.77;;
76171;SDS011;64929;51.178;4.138;2023-04-24T06:25:10;22.20;;;9.13;;
76171;SDS011;64929;51.178;4.138;2023-04-24T06:27:36;16.30;;;8.55;;
76171;SDS011;64929;51.178;4.138;2023-04-24T06:30:02;14.25;;;7.22;;
76171;SDS011;64929;51.178;4.138;2023-04-24T06:32:28;12.43;;;7.03;;
76171;SDS011;64929;51.178;4.138;2023-04-24T06:34:53;11.30;;;5.90;;
76171;SDS011;64929;51.178;4.138;2023-04-24T06:37:22;9.50;;;5.35;;
76171;SDS011;64929;51.178;4.138;2023-04-24T06:39:48;11.20;;;5.50;;
76171;SDS011;64929;51.178;4.138;2023-04-24T06:42:13;7.60;;;4.15;;
76171;SDS011;64929;51.178;4.138;2023-04-24T06:44:42;6.53;;;3.22;;
76171;SDS011;64929;51.178;4.138;2023-04-24T06:47:08;9.55;;;3.78;;
76171;SDS011;64929;51.178;4.138;2023-04-24T06:49:35;5.80;;;3.25;;
76171;SDS011;64929;51.178;4.138;2023-04-24T06:52:01;5.70;;;3.10;;
76171;SDS011;64929;51.178;4.138;2023-04-24T06:54:27;5.93;;;2.30;;
76171;SDS011;64929;51.178;4.138;2023-04-24T06:56:53;6.45;;;2.42;;
76171;SDS011;64929;51.178;4.138;2023-04-24T06:59:19;4.55;;;3.13;;
76171;SDS011;64929;51.178;4.138;2023-04-24T07:01:45;4.07;;;2.42;;
76171;SDS011;64929;51.178;4.138;2023-04-24T07:04:10;3.83;;;1.80;;
76171;SDS011;64929;51.178;4.138;2023-04-24T07:06:37;4.13;;;2.60;;
76171;SDS011;64929;51.178;4.138;2023-04-24T07:09:04;3.40;;;2.00;;
76171;SDS011;64929;51.178;4.138;2023-04-24T07:11:29;6.38;;;2.72;;
76171;SDS011;64929;51.178;4.138;2023-04-24T07:13:55;5.13;;;2.28;;
76171;SDS011;64929;51.178;4.138;2023-04-24T07:16:21;5.88;;;2.55;;
76171;SDS011;64929;51.178;4.138;2023-04-24T07:18:47;3.58;;;2.22;;
76171;SDS011;64929;51.178;4.138;2023-04-24T07:21:12;6.68;;;3.00;;
76171;SDS011;64929;51.178;4.138;2023-04-24T07:23:38;6.82;;;3.05;;
76171;SDS011;64929;51.178;4.138;2023-04-24T07:26:06;4.85;;;2.33;;
76171;SDS011;64929;51.178;4.138;2023-04-24T07:28:31;4.28;;;2.05;;
76171;SDS011;64929;51.178;4.138;2023-04-24T07:30:57;6.68;;;2.72;;
76171;SDS011;64929;51.178;4.138;2023-04-24T07:33:24;6.55;;;2.95;;
76171;SDS011;64929;51.178;4.138;2023-04-24T07:35:50;3.58;;;2.30;;
76171;SDS011;64929;51.178;4.138;2023-04-24T07:38:17;7.20;;;2.78;;
76171;SDS011;64929;51.178;4.138;2023-04-24T07:40:46;3.50;;;1.55;;
76171;SDS011;64929;51.178;4.138;2023-04-24T07:43:12;5.68;;;1.65;;
76171;SDS011;64929;51.178;4.138;2023-04-24T07:45:37;3.40;;;1.40;;
76171;SDS011;64929;51.178;4.138;2023-04-24T07:48:04;9.88;;;1.80;;
76171;SDS011;64929;51.178;4.138;2023-04-24T07:50:30;10.77;;;2.17;;
76171;SDS011;64929;51.178;4.138;2023-04-24T07:52:56;3.45;;;2.15;;
76171;SDS011;64929;51.178;4.138;2023-04-24T07:55:22;6.28;;;2.17;;
76171;SDS011;64929;51.178;4.138;2023-04-24T07:57:48;6.78;;;2.50;;
76171;SDS011;64929;51.178;4.138;2023-04-24T08:00:13;7.43;;;2.28;;
76171;SDS011;64929;51.178;4.138;2023-04-24T08:02:39;5.70;;;2.22;;
76171;SDS011;64929;51.178;4.138;2023-04-24T08:05:05;11.40;;;2.25;;
76171;SDS011;64929;51.178;4.138;2023-04-24T08:07:31;5.90;;;2.03;;
76171;SDS011;64929;51.178;4.138;2023-04-24T08:09:57;4.03;;;2.22;;
76171;SDS011;64929;51.178;4.138;2023-04-24T08:12:24;3.05;;;1.45;;
76171;SDS011;64929;51.178;4.138;2023-04-24T08:14:50;6.40;;;1.38;;
76171;SDS011;64929;51.178;4.138;2023-04-24T08:17:16;3.58;;;1.58;;
76171;SDS011;64929;51.178;4.138;2023-04-24T08:19:42;5.13;;;1.50;;
76171;SDS011;64929;51.178;4.138;2023-04-24T08:22:12;4.82;;;1.67;;
76171;SDS011;64929;51.178;4.138;2023-04-24T08:24:38;5.90;;;1.90;;
76171;SDS011;64929;51.178;4.138;2023-04-24T08:27:04;11.15;;;2.08;;
76171;SDS011;64929;51.178;4.138;2023-04-24T08:29:29;4.00;;;1.63;;
76171;SDS011;64929;51.178;4.138;2023-04-24T08:31:55;5.68;;;1.55;;
76171;SDS011;64929;51.178;4.138;2023-04-24T08:34:21;4.93;;;1.92;;
76171;SDS011;64929;51.178;4.138;2023-04-24T08:36:47;2.25;;;1.50;;
76171;SDS011;64929;51.178;4.138;2023-04-24T08:39:13;5.82;;;1.70;;
76171;SDS011;64929;51.178;4.138;2023-04-24T08:41:41;4.85;;;1.83;;
76171;SDS011;64929;51.178;4.138;2023-04-24T08:44:08;2.90;;;1.63;;
76171;SDS011;64929;51.178;4.138;2023-04-24T08:46:34;5.78;;;2.28;;
76171;SDS011;64929;51.178;4.138;2023-04-24T08:49:01;5.63;;;2.45;;
76171;SDS011;64929;51.178;4.138;2023-04-24T08:51:28;4.82;;;2.35;;
76171;SDS011;64929;51.178;4.138;2023-04-24T08:53:56;4.07;;;2.03;;
76171;SDS011;64929;51.178;4.138;2023-04-24T08:56:22;3.83;;;2.20;;
76171;SDS011;64929;51.178;4.138;2023-04-24T08:58:50;4.32;;;2.05;;
76171;SDS011;64929;51.178;4.138;2023-04-24T09:01:17;4.65;;;1.92;;
76171;SDS011;64929;51.178;4.138;2023-04-24T09:03:48;8.25;;;1.88;;
76171;SDS011;64929;51.178;4.138;2023-04-24T09:06:14;3.55;;;1.63;;
76171;SDS011;64929;51.178;4.138;2023-04-24T09:08:42;3.38;;;1.35;;
76171;SDS011;64929;51.178;4.138;2023-04-24T09:11:10;6.70;;;1.90;;
76171;SDS011;64929;51.178;4.138;2023-04-24T09:13:37;3.53;;;1.67;;
76171;SDS011;64929;51.178;4.138;2023-04-24T09:16:03;6.07;;;1.70;;
76171;SDS011;64929;51.178;4.138;2023-04-24T09:18:29;3.25;;;1.80;;
76171;SDS011;64929;51.178;4.138;2023-04-24T09:21:06;2.72;;;1.30;;
76171;SDS011;64929;51.178;4.138;2023-04-24T09:23:33;3.45;;;1.65;;
76171;SDS011;64929;51.178;4.138;2023-04-24T09:25:59;5.53;;;1.77;;
76171;SDS011;64929;51.178;4.138;2023-04-24T09:28:30;3.17;;;1.13;;
76171;SDS011;64929;51.178;4.138;2023-04-24T09:31:06;6.63;;;2.08;;
76171;SDS011;64929;51.178;4.138;2023-04-24T09:33:34;2.80;;;1.30;;
76171;SDS011;64929;51.178;4.138;2023-04-24T09:36:00;2.53;;;1.15;;
76171;SDS011;64929;51.178;4.138;2023-04-24T09:38:34;3.65;;;1.50;;
76171;SDS011;64929;51.178;4.138;2023-04-24T09:41:02;3.40;;;1.20;;
76171;SDS011;64929;51.178;4.138;2023-04-24T09:43:29;4.13;;;1.10;;
76171;SDS011;64929;51.178;4.138;2023-04-24T09:45:56;2.10;;;1.13;;
76171;SDS011;64929;51.178;4.138;2023-04-24T09:48:29;1.92;;;1.02;;
76171;SDS011;64929;51.178;4.138;2023-04-24T09:51:00;2.90;;;1.35;;
76171;SDS011;64929;51.178;4.138;2023-04-24T09:53:26;3.50;;;1.40;;
76171;SDS011;64929;51.178;4.138;2023-04-24T09:55:53;3.78;;;1.08;;
76171;SDS011;64929;51.178;4.138;2023-04-24T09:58:25;3.83;;;0.80;;
76171;SDS011;64929;51.178;4.138;2023-04-24T10:00:53;2.53;;;1.27;;
76171;SDS011;64929;51.178;4.138;2023-04-24T10:03:20;1.95;;;0.90;;
76171;SDS011;64929;51.178;4.138;2023-04-24T10:05:46;2.15;;;1.25;;
76171;SDS011;64929;51.178;4.138;2023-04-24T10:08:12;1.75;;;0.95;;
76171;SDS011;64929;51.178;4.138;2023-04-24T10:10:40;2.10;;;1.50;;
76171;SDS011;64929;51.178;4.138;2023-04-24T10:13:07;3.33;;;1.00;;
76171;SDS011;64929;51.178;4.138;2023-04-24T10:15:35;4.25;;;1.05;;
76171;SDS011;64929;51.178;4.138;2023-04-24T10:18:01;2.92;;;1.10;;
76171;SDS011;64929;51.178;4.138;2023-04-24T10:20:29;3.35;;;1.23;;
76171;SDS011;64929;51.178;4.138;2023-04-24T10:22:56;2.13;;;1.02;;
76171;SDS011;64929;51.178;4.138;2023-04-24T10:25:27;3.05;;;1.17;;
76171;SDS011;64929;51.178;4.138;2023-04-24T10:27:54;1.92;;;1.20;;
76171;SDS011;64929;51.178;4.138;2023-04-24T10:30:25;3.60;;;1.77;;
76171;SDS011;64929;51.178;4.138;2023-04-24T10:32:52;4.72;;;1.75;;
76171;SDS011;64929;51.178;4.138;2023-04-24T10:35:18;3.22;;;1.27;;
76171;SDS011;64929;51.178;4.138;2023-04-24T10:37:50;4.10;;;1.35;;
76171;SDS011;64929;51.178;4.138;2023-04-24T10:40:25;3.95;;;1.20;;
76171;SDS011;64929;51.178;4.138;2023-04-24T10:42:53;3.67;;;1.73;;
76171;SDS011;64929;51.178;4.138;2023-04-24T10:45:21;2.35;;;1.20;;
76171;SDS011;64929;51.178;4.138;2023-04-24T10:48:03;2.72;;;1.30;;
76171;SDS011;64929;51.178;4.138;2023-04-24T10:50:42;1.13;;;1.00;;
76171;SDS011;64929;51.178;4.138;2023-04-24T10:53:17;2.13;;;1.05;;
76171;SDS011;64929;51.178;4.138;2023-04-24T10:56:07;6.25;;;1.40;;
76171;SDS011;64929;51.178;4.138;2023-04-24T10:58:45;2.08;;;1.10;;
76171;SDS011;64929;51.178;4.138;2023-04-24T11:03:51;0.55;;;0.47;;
76171;SDS011;64929;51.178;4.138;2023-04-24T11:09:01;1.77;;;0.60;;
76171;SDS011;64929;51.178;4.138;2023-04-24T11:11:30;1.27;;;0.88;;
76171;SDS011;64929;51.178;4.138;2023-04-24T11:16:26;2.22;;;1.13;;
76171;SDS011;64929;51.178;4.138;2023-04-24T11:19:17;4.18;;;0.80;;
76171;SDS011;64929;51.178;4.138;2023-04-24T11:24:23;1.00;;;0.43;;
76171;SDS011;64929;51.178;4.138;2023-04-24T11:26:48;1.08;;;0.60;;
76171;SDS011;64929;51.178;4.138;2023-04-24T11:29:17;2.15;;;0.90;;
76171;SDS011;64929;51.178;4.138;2023-04-24T11:31:47;1.05;;;0.57;;
76171;SDS011;64929;51.178;4.138;2023-04-24T11:34:16;2.88;;;0.70;;
76171;SDS011;64929;51.178;4.138;2023-04-24T11:36:46;0.90;;;0.70;;
76171;SDS011;64929;51.178;4.138;2023-04-24T11:39:14;1.70;;;0.95;;
76171;SDS011;64929;51.178;4.138;2023-04-24T11:41:49;2.70;;;0.77;;
76171;SDS011;64929;51.178;4.138;2023-04-24T11:44:16;1.13;;;0.73;;
76171;SDS011;64929;51.178;4.138;2023-04-24T11:46:46;2.10;;;0.70;;
76171;SDS011;64929;51.178;4.138;2023-04-24T11:49:17;2.40;;;0.63;;
76171;SDS011;64929;51.178;4.138;2023-04-24T11:51:43;0.60;;;0.50;;
76171;SDS011;64929;51.178;4.138;2023-04-24T11:54:09;1.05;;;0.63;;
76171;SDS011;64929;51.178;4.138;2023-04-24T11:56:38;0.75;;;0.68;;
76171;SDS011;64929;51.178;4.138;2023-04-24T11:59:04;0.80;;;0.80;;
76171;SDS011;64929;51.178;4.138;2023-04-24T12:01:41;1.08;;;0.50;;
76171;SDS011;64929;51.178;4.138;2023-04-24T12:04:11;1.00;;;0.65;;
76171;SDS011;64929;51.178;4.138;2023-04-24T12:06:37;2.17;;;0.60;;
76171;SDS011;64929;51.178;4.138;2023-04-24T12:09:03;2.38;;;1.20;;
76171;SDS011;64929;51.178;4.138;2023-04-24T12:11:31;0.77;;;0.50;;
76171;SDS011;64929;51.178;4.138;2023-04-24T12:14:09;1.15;;;0.50;;
76171;SDS011;64929;51.178;4.138;2023-04-24T12:16:38;2.08;;;0.77;;
76171;SDS011;64929;51.178;4.138;2023-04-24T12:19:06;2.72;;;0.57;;
76171;SDS011;64929;51.178;4.138;2023-04-24T12:21:37;1.55;;;0.60;;
76171;SDS011;64929;51.178;4.138;2023-04-24T12:24:06;0.93;;;0.50;;
76171;SDS011;64929;51.178;4.138;2023-04-24T12:26:35;0.85;;;0.73;;
76171;SDS011;64929;51.178;4.138;2023-04-24T12:29:01;1.25;;;0.80;;
76171;SDS011;64929;51.178;4.138;2023-04-24T12:31:32;1.40;;;0.80;;
76171;SDS011;64929;51.178;4.138;2023-04-24T12:34:01;3.17;;;0.70;;
76171;SDS011;64929;51.178;4.138;2023-04-24T12:36:30;1.23;;;0.60;;
76171;SDS011;64929;51.178;4.138;2023-04-24T12:38:56;2.47;;;1.00;;
76171;SDS011;64929;51.178;4.138;2023-04-24T12:41:22;0.82;;;0.80;;
76171;SDS011;64929;51.178;4.138;2023-04-24T12:43:51;4.13;;;1.20;;
76171;SDS011;64929;51.178;4.138;2023-04-24T12:48:44;0.75;;;0.52;;
76171;SDS011;64929;51.178;4.138;2023-04-24T12:51:14;1.60;;;0.30;;
76171;SDS011;64929;51.178;4.138;2023-04-24T12:53:40;1.65;;;0.60;;
76171;SDS011;64929;51.178;4.138;2023-04-24T12:56:06;1.88;;;0.60;;
76171;SDS011;64929;51.178;4.138;2023-04-24T12:58:37;0.60;;;0.52;;
76171;SDS011;64929;51.178;4.138;2023-04-24T13:01:05;2.40;;;0.70;;
76171;SDS011;64929;51.178;4.138;2023-04-24T13:03:30;1.42;;;0.50;;
76171;SDS011;64929;51.178;4.138;2023-04-24T13:05:58;0.40;;;0.40;;
76171;SDS011;64929;51.178;4.138;2023-04-24T13:08:24;1.23;;;0.40;;
76171;SDS011;64929;51.178;4.138;2023-04-24T13:10:52;0.40;;;0.40;;
76171;SDS011;64929;51.178;4.138;2023-04-24T13:13:18;1.95;;;0.40;;
76171;SDS011;64929;51.178;4.138;2023-04-24T13:15:44;2.28;;;0.80;;
76171;SDS011;64929;51.178;4.138;2023-04-24T13:18:10;4.57;;;0.80;;
76171;SDS011;64929;51.178;4.138;2023-04-24T13:20:36;1.27;;;0.70;;
76171;SDS011;64929;51.178;4.138;2023-04-24T13:23:04;1.52;;;0.55;;
76171;SDS011;64929;51.178;4.138;2023-04-24T13:25:35;2.22;;;0.57;;
76171;SDS011;64929;51.178;4.138;2023-04-24T13:28:02;0.85;;;0.75;;
76171;SDS011;64929;51.178;4.138;2023-04-24T13:30:28;2.95;;;0.70;;
76171;SDS011;64929;51.178;4.138;2023-04-24T13:32:54;2.97;;;0.60;;
76171;SDS011;64929;51.178;4.138;2023-04-24T13:35:20;0.93;;;0.85;;
76171;SDS011;64929;51.178;4.138;2023-04-24T13:37:48;2.58;;;0.57;;
76171;SDS011;64929;51.178;4.138;2023-04-24T13:40:14;1.02;;;0.63;;
76171;SDS011;64929;51.178;4.138;2023-04-24T13:42:40;1.10;;;0.70;;
76171;SDS011;64929;51.178;4.138;2023-04-24T13:45:06;0.45;;;0.45;;
76171;SDS011;64929;51.178;4.138;2023-04-24T13:47:32;2.88;;;0.75;;
76171;SDS011;64929;51.178;4.138;2023-04-24T13:49:58;0.30;;;0.30;;
76171;SDS011;64929;51.178;4.138;2023-04-24T13:52:23;1.10;;;0.93;;
76171;SDS011;64929;51.178;4.138;2023-04-24T13:54:53;0.57;;;0.37;;
76171;SDS011;64929;51.178;4.138;2023-04-24T13:57:21;3.35;;;0.60;;
76171;SDS011;64929;51.178;4.138;2023-04-24T13:59:47;3.95;;;0.70;;
76171;SDS011;64929;51.178;4.138;2023-04-24T14:02:18;0.93;;;0.60;;
76171;SDS011;64929;51.178;4.138;2023-04-24T14:04:44;0.40;;;0.40;;
76171;SDS011;64929;51.178;4.138;2023-04-24T14:07:09;0.80;;;0.40;;
76171;SDS011;64929;51.178;4.138;2023-04-24T14:09:41;1.15;;;0.52;;
76171;SDS011;64929;51.178;4.138;2023-04-24T14:12:07;0.35;;;0.32;;
76171;SDS011;64929;51.178;4.138;2023-04-24T14:14:34;0.65;;;0.30;;
76171;SDS011;64929;51.178;4.138;2023-04-24T14:17:00;1.20;;;0.43;;
76171;SDS011;64929;51.178;4.138;2023-04-24T14:19:31;1.17;;;1.00;;
76171;SDS011;64929;51.178;4.138;2023-04-24T14:22:00;1.63;;;0.60;;
76171;SDS011;64929;51.178;4.138;2023-04-24T14:24:25;0.70;;;0.40;;
76171;SDS011;64929;51.178;4.138;2023-04-24T14:26:51;1.40;;;0.60;;
76171;SDS011;64929;51.178;4.138;2023-04-24T14:29:19;0.35;;;0.35;;
76171;SDS011;64929;51.178;4.138;2023-04-24T14:31:45;0.85;;;0.50;;
76171;SDS011;64929;51.178;4.138;2023-04-24T14:34:13;0.60;;;0.40;;
76171;SDS011;64929;51.178;4.138;2023-04-24T14:36:38;0.95;;;0.60;;
76171;SDS011;64929;51.178;4.138;2023-04-24T14:39:04;2.65;;;0.82;;
76171;SDS011;64929;51.178;4.138;2023-04-24T14:41:33;1.95;;;0.60;;
76171;SDS011;64929;51.178;4.138;2023-04-24T14:44:01;1.50;;;0.80;;
76171;SDS011;64929;51.178;4.138;2023-04-24T14:46:28;1.05;;;0.50;;
76171;SDS011;64929;51.178;4.138;2023-04-24T14:48:56;0.80;;;0.60;;
76171;SDS011;64929;51.178;4.138;2023-04-24T14:51:22;0.98;;;0.65;;